createdAt,value
2019-04-23T00:01:29.922Z,96.90
2019-04-23T00:03:51.998Z,96.30
2019-04-23T00:06:24.850Z,95.80
2019-04-23T00:13:59.508Z,96.70
2019-04-23T00:16:30.185Z,96.40
2019-04-23T00:18:56.326Z,95.90
2019-04-23T00:24:17.472Z,97.20
2019-04-23T00:26:36.652Z,96.80
2019-04-23T00:29:16.096Z,96.50
2019-04-23T00:31:36.179Z,96.60
2019-04-23T00:37:06.480Z,97.10
2019-04-23T00:39:35.837Z,96.60
2019-04-23T00:41:57.333Z,97.10
2019-04-23T00:44:34.962Z,97.30
2019-04-23T00:47:02.605Z,96.80
2019-04-23T00:49:32.532Z,97.30
2019-04-23T00:52:09.553Z,97.50
2019-04-23T00:54:34.458Z,97.20
2019-04-23T00:57:08.975Z,96.90
2019-04-23T00:59:39.477Z,97.60
2019-04-23T01:02:00.917Z,97.60
2019-04-23T01:04:32.794Z,97.80
2019-04-23T01:07:09.542Z,97.80
2019-04-23T01:09:40.550Z,97.50
2019-04-23T01:12:07.556Z,97.60
2019-04-23T01:14:39.748Z,97.80
2019-04-23T01:17:17.288Z,97.20
2019-04-23T01:21:58.164Z,96.90
2019-04-23T01:24:31.293Z,97.00
2019-04-23T01:30:11.401Z,97.50
2019-04-23T01:32:49.757Z,98.10
2019-04-23T01:40:12.408Z,98.30
2019-04-23T01:42:52.511Z,98.60
2019-04-23T01:45:13.224Z,98.50
2019-04-23T01:47:45.382Z,97.80
2019-04-23T01:50:13.969Z,97.80
2019-04-23T01:52:45.602Z,98.20
2019-04-23T01:55:19.883Z,97.80
2019-04-23T01:57:53.121Z,98.40
2019-04-23T02:00:17.338Z,98.40
2019-04-23T02:02:49.621Z,98.40
2019-04-23T02:05:22.884Z,98.40
2019-04-23T02:07:50.951Z,98.60
2019-04-23T02:10:20.519Z,98.20
2019-04-23T02:15:16.903Z,98.10
2019-04-23T02:17:52.154Z,99.20
2019-04-23T02:20:23.847Z,98.60
2019-04-23T02:25:54.075Z,99.40
2019-04-23T02:43:26.057Z,99.50
2019-04-23T02:48:24.135Z,99.90
2019-04-23T02:53:37.465Z,99.90
2019-04-23T02:58:41.908Z,99.90
2019-04-23T03:01:14.820Z,99.90
2019-04-23T03:03:35.779Z,99.90
2019-04-23T03:08:32.967Z,99.80
2019-04-23T03:11:09.809Z,99.90
2019-04-23T03:13:44.066Z,99.90
2019-04-23T03:16:15.693Z,99.90
2019-04-23T03:18:51.651Z,99.90
2019-04-23T03:21:42.584Z,99.90
2019-04-23T03:26:57.516Z,99.90
2019-04-23T03:39:17.717Z,99.70
2019-04-23T03:41:53.885Z,99.20
2019-04-23T03:44:20.588Z,99.10
2019-04-23T03:49:21.816Z,98.70
2019-04-23T03:54:34.231Z,99.30
2019-04-23T03:57:03.322Z,99.80
2019-04-23T04:02:10.623Z,99.50
2019-04-23T04:07:01.209Z,99.40
2019-04-23T04:12:01.693Z,99.10
2019-04-23T04:14:44.645Z,98.80
2019-04-23T04:16:59.596Z,98.40
2019-04-23T04:24:34.935Z,98.00
2019-04-23T04:27:07.340Z,98.00
2019-04-23T04:29:39.436Z,97.90
2019-04-23T04:32:00.820Z,97.70
2019-04-23T04:39:42.826Z,98.50
2019-04-23T04:44:43.498Z,98.60
2019-04-23T04:47:15.480Z,99.70
2019-04-23T04:52:22.636Z,99.80
2019-04-23T04:54:29.112Z,99.90
2019-04-23T04:59:50.765Z,99.30
2019-04-23T05:04:45.367Z,99.00
2019-04-23T05:07:24.003Z,98.30
2019-04-23T05:12:18.375Z,99.00
2019-04-23T05:14:59.649Z,99.10
2019-04-23T05:17:46.499Z,99.30
2019-04-23T05:20:05.097Z,99.30
2019-04-23T05:22:44.927Z,99.30
2019-04-23T05:24:58.111Z,99.00
2019-04-23T05:27:40.624Z,98.20
2019-04-23T05:30:09.865Z,98.10
2019-04-23T05:32:39.109Z,98.80
2019-04-23T05:35:16.905Z,98.10
2019-04-23T05:37:50.348Z,98.60
2019-04-23T05:40:15.993Z,99.50
2019-04-23T05:42:40.171Z,99.00
2019-04-23T05:45:29.829Z,98.80
2019-04-23T05:47:46.377Z,98.90
2019-04-23T05:50:25.914Z,98.90
2019-04-23T05:52:57.790Z,98.90
2019-04-23T05:55:18.710Z,99.00
2019-04-23T05:57:53.649Z,99.00
2019-04-23T06:00:23.656Z,99.10
2019-04-23T06:03:22.729Z,99.10
2019-04-23T06:05:37.097Z,99.20
2019-04-23T06:08:07.911Z,99.30
2019-04-23T06:10:45.537Z,99.10
2019-04-23T06:13:15.659Z,98.90
2019-04-23T06:15:41.722Z,98.90
2019-04-23T06:18:16.849Z,98.70
2019-04-23T06:20:48.644Z,98.70
2019-04-23T06:23:27.165Z,98.70
2019-04-23T06:28:21.178Z,98.90
2019-04-23T06:30:58.869Z,98.90
2019-04-23T06:33:21.059Z,99.10
2019-04-23T06:35:50.359Z,98.90
2019-04-23T06:40:47.456Z,98.70
2019-04-23T06:43:47.571Z,98.80
2019-04-23T06:46:09.387Z,98.60
2019-04-23T06:48:38.548Z,97.90
2019-04-23T06:51:15.892Z,97.90
2019-04-23T06:53:35.874Z,97.90
2019-04-23T06:56:13.538Z,98.10
2019-04-23T06:58:37.378Z,97.70
2019-04-23T07:01:19.179Z,97.80
2019-04-23T07:03:45.205Z,97.30
2019-04-23T07:09:05.199Z,97.40
2019-04-23T07:11:23.677Z,97.30
2019-04-23T07:13:54.641Z,96.90
2019-04-23T07:16:31.454Z,96.60
2019-04-23T07:21:18.289Z,96.20
2019-04-23T07:23:54.462Z,96.50
2019-04-23T07:28:54.685Z,95.40
2019-04-23T07:31:35.084Z,94.60
2019-04-23T07:41:46.476Z,92.80
2019-04-23T07:44:12.822Z,93.40
2019-04-23T07:47:11.728Z,93.20
2019-04-23T07:49:30.704Z,92.60
2019-04-23T07:52:02.748Z,92.50
2019-04-23T07:54:29.034Z,92.10
2019-04-23T07:57:02.943Z,91.00
2019-04-23T07:59:38.424Z,92.00
2019-04-23T08:02:12.763Z,91.00
2019-04-23T08:04:37.361Z,91.20
2019-04-23T08:07:02.821Z,91.00
2019-04-23T08:09:43.690Z,90.50
2019-04-23T08:12:13.806Z,90.90
2019-04-23T08:14:42.696Z,90.10
2019-04-23T08:17:05.483Z,89.00
2019-04-23T08:19:49.636Z,88.80
2019-04-23T08:22:22.159Z,89.50
2019-04-23T08:24:57.274Z,88.90
2019-04-23T08:27:28.274Z,85.00
2019-04-23T08:30:03.327Z,87.40
2019-04-23T08:32:21.296Z,86.10
2019-04-23T08:35:15.951Z,84.40
2019-04-23T08:37:46.692Z,83.30
2019-04-23T08:40:02.617Z,83.30
2019-04-23T08:50:44.202Z,83.00
2019-04-23T08:53:30.877Z,83.30
2019-04-23T08:56:00.398Z,80.80
2019-04-23T08:58:19.076Z,79.70
2019-04-23T09:00:52.689Z,78.50
2019-04-23T09:05:55.891Z,73.80
2019-04-23T09:10:55.842Z,73.30
2019-04-23T09:13:51.710Z,74.00
2019-04-23T09:20:52.886Z,70.70
2019-04-23T09:23:30.909Z,68.50
2019-04-23T09:25:54.428Z,68.10
2019-04-23T09:28:34.613Z,66.70
2019-04-23T09:31:14.488Z,64.20
2019-04-23T09:34:00.545Z,64.80
2019-04-23T09:36:25.569Z,64.70
2019-04-23T09:38:54.198Z,63.90
2019-04-23T09:41:29.124Z,64.90
2019-04-23T09:44:39.110Z,63.90
2019-04-23T09:46:36.173Z,63.20
2019-04-23T09:54:16.569Z,60.40
2019-04-23T09:56:50.810Z,60.30
2019-04-23T09:59:39.113Z,60.30
2019-04-23T10:01:48.221Z,59.20
2019-04-23T10:04:07.487Z,58.70
2019-04-23T10:06:30.701Z,57.80
2019-04-23T10:09:01.466Z,57.30
2019-04-23T10:11:28.415Z,57.90
2019-04-23T10:13:58.801Z,56.40
2019-04-23T10:16:31.888Z,57.60
2019-04-23T10:18:59.374Z,57.80
2019-04-23T10:21:29.279Z,56.90
2019-04-23T10:23:59.275Z,56.60
2019-04-23T10:26:28.791Z,56.10
2019-04-23T10:29:02.107Z,55.30
2019-04-23T10:31:33.458Z,56.10
2019-04-23T10:34:04.183Z,55.60
2019-04-23T10:36:34.580Z,55.20
2019-04-23T10:39:12.429Z,55.20
2019-04-23T10:41:38.450Z,54.90
2019-04-23T10:44:25.479Z,55.00
2019-04-23T10:47:27.150Z,54.20
2019-04-23T10:52:28.038Z,54.50
2019-04-23T10:57:23.204Z,53.20
2019-04-23T11:00:13.766Z,53.50
2019-04-23T11:05:26.090Z,53.40
2019-04-23T11:07:35.254Z,53.50
2019-04-23T11:10:05.164Z,52.70
2019-04-23T11:12:42.362Z,52.80
2019-04-23T11:17:47.804Z,50.90
2019-04-23T11:20:25.837Z,50.70
2019-04-23T11:27:49.008Z,50.30
2019-04-23T11:38:08.728Z,52.20
2019-04-23T11:40:28.226Z,53.70
2019-04-23T11:42:57.659Z,55.30
2019-04-23T11:45:36.646Z,54.00
2019-04-23T11:48:26.379Z,55.90
2019-04-23T11:50:43.151Z,57.50
2019-04-23T11:52:56.904Z,56.70
2019-04-23T11:55:39.117Z,59.80
2019-04-23T11:58:08.412Z,59.60
2019-04-23T12:00:38.626Z,60.70
2019-04-23T12:03:02.605Z,62.10
2019-04-23T12:06:07.513Z,63.10
2019-04-23T12:09:31.426Z,64.50
2019-04-23T12:11:35.858Z,66.00
2019-04-23T12:13:45.560Z,65.90
2019-04-23T12:16:12.525Z,66.30
2019-04-23T12:18:51.431Z,66.90
2019-04-23T12:21:25.438Z,69.10
2019-04-23T12:26:34.218Z,71.30
2019-04-23T12:28:53.098Z,71.40
2019-04-23T12:31:25.438Z,69.50
2019-04-23T12:33:57.512Z,70.60
2019-04-23T12:39:11.325Z,71.80
2019-04-23T12:41:45.437Z,72.70
2019-04-23T12:44:33.294Z,72.40
2019-04-23T12:46:46.190Z,73.10
2019-04-23T12:49:34.069Z,72.20
2019-04-23T12:51:46.898Z,72.60
2019-04-23T12:54:21.345Z,73.30
2019-04-23T12:56:57.377Z,74.50
2019-04-23T12:59:17.200Z,74.00
2019-04-23T13:01:48.912Z,71.10
2019-04-23T13:04:21.870Z,72.40
2019-04-23T13:06:45.585Z,69.20
2019-04-23T13:09:38.972Z,70.00
2019-04-23T13:11:53.006Z,71.00
2019-04-23T13:14:29.621Z,71.10
2019-04-23T13:19:33.326Z,74.00
2019-04-23T13:22:00.226Z,75.10
2019-04-23T13:24:46.234Z,74.30
2019-04-23T13:27:12.033Z,75.10
2019-04-23T13:29:46.085Z,76.50
2019-04-23T13:32:11.059Z,78.20
2019-04-23T13:34:48.432Z,75.60
2019-04-23T13:37:26.292Z,77.20
2019-04-23T13:39:43.843Z,78.50
2019-04-23T13:42:24.319Z,79.20
2019-04-23T13:44:46.643Z,78.40
2019-04-23T13:47:36.233Z,79.20
2019-04-23T13:49:55.141Z,78.90
2019-04-23T13:52:43.291Z,81.10
2019-04-23T13:57:50.896Z,79.70
2019-04-23T14:05:00.394Z,82.00
2019-04-23T14:07:44.588Z,81.90
2019-04-23T14:10:13.570Z,82.30
2019-04-23T14:12:41.605Z,84.10
2019-04-23T14:20:07.160Z,84.90
2019-04-23T14:25:05.762Z,85.20
2019-04-23T14:27:51.987Z,86.30
2019-04-23T14:30:13.164Z,87.30
2019-04-23T14:32:41.552Z,88.10
2019-04-23T14:35:21.302Z,87.40
2019-04-23T14:37:59.794Z,88.20
2019-04-23T14:40:19.608Z,88.20
2019-04-23T14:42:56.190Z,88.80
2019-04-23T14:48:00.938Z,89.50
2019-04-23T14:50:34.841Z,89.50
2019-04-23T14:53:06.947Z,89.70
2019-04-23T15:00:33.250Z,90.70
2019-04-23T15:03:08.356Z,90.30
2019-04-23T15:05:38.385Z,90.10
2019-04-23T15:07:58.176Z,90.10
2019-04-23T15:10:36.041Z,89.70
2019-04-23T15:13:03.333Z,90.40
2019-04-23T15:15:40.521Z,90.50
2019-04-23T15:18:07.453Z,90.60
2019-04-23T15:20:41.456Z,90.80
2019-04-23T15:23:25.609Z,90.60
2019-04-23T15:26:15.241Z,90.80
2019-04-23T15:28:06.765Z,91.00
2019-04-23T15:30:51.438Z,91.00
2019-04-23T15:33:25.931Z,90.90
2019-04-23T15:36:21.863Z,90.90
2019-04-23T15:38:37.770Z,90.60
2019-04-23T15:40:53.975Z,90.70
2019-04-23T15:43:14.462Z,90.90
2019-04-23T15:45:52.355Z,91.20
2019-04-23T15:48:22.440Z,91.40
2019-04-23T15:50:51.691Z,91.20
2019-04-23T15:53:11.444Z,91.30
2019-04-23T15:55:49.180Z,91.70
2019-04-23T15:58:26.554Z,92.40
2019-04-23T16:01:18.148Z,91.90
2019-04-23T16:03:15.584Z,91.90
2019-04-23T16:05:46.379Z,92.30
2019-04-23T16:08:56.919Z,92.20
2019-04-23T16:11:26.491Z,91.70
2019-04-23T16:14:08.001Z,91.90
2019-04-23T16:16:26.151Z,91.80
2019-04-23T16:19:05.921Z,92.20
2019-04-23T16:21:41.144Z,92.20
2019-04-23T16:24:01.190Z,91.90
2019-04-23T16:26:32.474Z,92.40
2019-04-23T16:31:35.987Z,92.20
2019-04-23T16:34:17.795Z,92.50
2019-04-23T16:36:32.921Z,92.50
2019-04-23T16:39:07.550Z,92.50
2019-04-23T16:41:43.742Z,92.90
2019-04-23T16:44:14.238Z,92.50
2019-04-23T16:46:44.276Z,92.40
2019-04-23T16:49:15.328Z,93.10
2019-04-23T16:51:32.444Z,93.30
2019-04-23T16:54:15.279Z,93.20
2019-04-23T16:56:55.979Z,92.90
2019-04-23T16:59:15.311Z,93.10
2019-04-23T17:01:46.550Z,93.10
2019-04-23T17:04:19.594Z,92.90
2019-04-23T17:06:44.200Z,92.90
2019-04-23T17:09:36.781Z,93.00
2019-04-23T17:11:44.802Z,93.10
2019-04-23T17:14:21.567Z,93.30
2019-04-23T17:27:08.252Z,93.30
2019-04-23T17:29:26.805Z,93.50
2019-04-23T17:31:45.225Z,93.50
2019-04-23T17:34:30.216Z,93.80
2019-04-23T17:39:45.376Z,93.80
2019-04-23T17:42:22.592Z,94.00
2019-04-23T17:45:07.870Z,94.50
2019-04-23T17:47:30.088Z,94.20
2019-04-23T17:52:26.626Z,94.60
2019-04-23T17:55:04.666Z,94.50
2019-04-23T18:00:17.952Z,94.40
2019-04-23T18:10:24.782Z,95.00
2019-04-23T18:12:43.866Z,95.10
2019-04-23T18:15:14.824Z,95.10
2019-04-23T18:17:41.325Z,95.20
2019-04-23T18:20:19.296Z,95.20
2019-04-23T18:22:56.842Z,95.40
2019-04-23T18:27:56.705Z,95.80
2019-04-23T18:30:52.704Z,95.80
2019-04-23T18:34:05.314Z,95.50
2019-04-23T18:36:02.475Z,95.50
2019-04-23T18:38:41.254Z,95.70
2019-04-23T18:43:38.930Z,95.80
2019-04-23T18:46:16.660Z,96.10
2019-04-23T18:51:10.427Z,96.20
2019-04-23T18:53:48.187Z,96.00
2019-04-23T19:06:30.421Z,96.20
2019-04-23T19:11:37.059Z,96.70
2019-04-23T19:13:59.518Z,96.50
2019-04-23T19:16:35.729Z,96.20
2019-04-23T19:19:05.193Z,96.80
2019-04-23T19:22:01.199Z,96.70
2019-04-23T19:23:54.776Z,96.80
2019-04-23T19:26:55.214Z,96.70
2019-04-23T19:29:00.432Z,97.30
2019-04-23T19:31:44.782Z,96.80
2019-04-23T19:39:17.793Z,97.50
2019-04-23T19:46:54.860Z,97.30
2019-04-23T19:49:25.072Z,97.60
2019-04-23T19:54:25.183Z,97.40
2019-04-23T19:56:59.922Z,97.00
2019-04-23T19:59:23.327Z,97.50
2019-04-23T20:01:58.900Z,97.70
2019-04-23T20:04:26.279Z,97.90
2019-04-23T20:09:38.358Z,97.60
2019-04-23T20:11:54.685Z,98.20
2019-04-23T20:14:27.643Z,97.80
2019-04-23T20:17:21.489Z,97.90
2019-04-23T20:19:30.037Z,98.00
2019-04-23T20:21:59.224Z,98.40
2019-04-23T20:27:09.276Z,98.40
2019-04-23T20:34:53.209Z,98.40
2019-04-23T20:37:12.575Z,98.80
2019-04-23T20:39:56.676Z,98.30
2019-04-23T20:42:18.208Z,98.40
2019-04-23T20:44:57.048Z,98.40
2019-04-23T20:47:30.386Z,98.60
2019-04-23T20:49:47.995Z,98.60
2019-04-23T20:52:30.160Z,98.00
2019-04-23T20:57:39.135Z,98.60
2019-04-23T21:03:10.456Z,98.50
2019-04-23T21:07:57.697Z,98.60
2019-04-23T21:12:58.160Z,98.10
2019-04-23T21:17:56.181Z,98.10
2019-04-23T21:22:58.408Z,98.60
2019-04-23T21:25:14.566Z,98.00
2019-04-23T21:27:57.225Z,98.50
2019-04-23T21:30:49.016Z,98.10
2019-04-23T21:33:11.610Z,97.90
2019-04-23T21:36:10.755Z,98.10
2019-04-23T21:38:46.404Z,97.90
2019-04-23T21:46:24.195Z,98.30
2019-04-23T21:49:08.685Z,98.40
2019-04-23T21:51:39.610Z,98.30
2019-04-23T21:53:53.183Z,98.50
2019-04-23T21:56:27.561Z,98.00
2019-04-23T21:58:57.618Z,98.30
2019-04-23T22:04:39.968Z,98.50
2019-04-23T22:09:04.315Z,98.50
2019-04-23T22:11:48.237Z,98.50
2019-04-23T22:14:05.969Z,98.00
2019-04-23T22:16:37.077Z,98.30
2019-04-23T22:19:10.644Z,98.10
2019-04-23T22:21:42.999Z,98.60
2019-04-23T22:29:19.159Z,99.10
2019-04-23T22:31:37.803Z,99.00
2019-04-23T22:36:39.463Z,99.20
2019-04-23T22:41:46.991Z,99.20
2019-04-23T22:49:29.173Z,99.20
2019-04-23T22:51:55.097Z,99.40
2019-04-23T22:54:14.972Z,99.20
2019-04-23T22:56:56.576Z,99.70
2019-04-23T23:02:00.369Z,99.90
2019-04-23T23:04:29.000Z,99.80
2019-04-23T23:07:03.265Z,99.60
2019-04-23T23:12:10.932Z,99.80
2019-04-23T23:14:45.916Z,99.90
2019-04-23T23:16:59.792Z,99.70
2019-04-23T23:19:39.864Z,99.90
2019-04-23T23:27:40.347Z,99.10
2019-04-23T23:32:43.163Z,99.80
2019-04-23T23:35:14.587Z,99.90
2019-04-23T23:37:37.220Z,98.80
2019-04-23T23:40:14.709Z,99.10
2019-04-23T23:42:50.198Z,99.20
2019-04-23T23:47:37.918Z,99.20
2019-04-23T23:50:26.522Z,99.10
2019-04-23T23:52:51.667Z,99.70
2019-04-23T23:55:16.060Z,99.90
2019-04-23T23:57:44.419Z,99.90
